sensor_id;sensor_type;location;lat;lon;timestamp;P1;durP1;ratioP1;P2;durP2;ratioP2
5058;SDS011;2548;52.050;11.036;2022-11-20T00:02:09;14.32;;;10.32;;
5058;SDS011;2548;52.050;11.036;2022-11-20T00:04:37;11.48;;;9.30;;
5058;SDS011;2548;52.050;11.036;2022-11-20T00:07:06;11.43;;;8.88;;
5058;SDS011;2548;52.050;11.036;2022-11-20T00:09:34;15.05;;;10.75;;
5058;SDS011;2548;52.050;11.036;2022-11-20T00:12:03;11.85;;;7.97;;
5058;SDS011;2548;52.050;11.036;2022-11-20T00:14:32;15.13;;;10.18;;
5058;SDS011;2548;52.050;11.036;2022-11-20T00:17:02;18.45;;;10.07;;
5058;SDS011;2548;52.050;11.036;2022-11-20T00:19:30;11.43;;;8.82;;
5058;SDS011;2548;52.050;11.036;2022-11-20T00:21:58;13.38;;;10.18;;
5058;SDS011;2548;52.050;11.036;2022-11-20T00:24:27;13.52;;;10.07;;
5058;SDS011;2548;52.050;11.036;2022-11-20T00:26:55;16.65;;;12.20;;
5058;SDS011;2548;52.050;11.036;2022-11-20T00:29:23;19.42;;;13.73;;
5058;SDS011;2548;52.050;11.036;2022-11-20T00:31:51;17.75;;;12.65;;
5058;SDS011;2548;52.050;11.036;2022-11-20T00:34:20;21.52;;;13.45;;
5058;SDS011;2548;52.050;11.036;2022-11-20T00:36:48;20.67;;;11.82;;
5058;SDS011;2548;52.050;11.036;2022-11-20T00:39:16;15.10;;;9.90;;
5058;SDS011;2548;52.050;11.036;2022-11-20T00:41:44;15.93;;;10.55;;
5058;SDS011;2548;52.050;11.036;2022-11-20T00:44:11;13.95;;;8.70;;
5058;SDS011;2548;52.050;11.036;2022-11-20T00:46:39;13.43;;;9.40;;
5058;SDS011;2548;52.050;11.036;2022-11-20T00:49:06;15.57;;;10.18;;
5058;SDS011;2548;52.050;11.036;2022-11-20T00:51:35;14.27;;;10.27;;
5058;SDS011;2548;52.050;11.036;2022-11-20T00:54:03;12.80;;;9.30;;
5058;SDS011;2548;52.050;11.036;2022-11-20T00:56:30;17.85;;;10.02;;
5058;SDS011;2548;52.050;11.036;2022-11-20T00:58:59;12.93;;;8.90;;
5058;SDS011;2548;52.050;11.036;2022-11-20T01:01:27;11.50;;;8.43;;
5058;SDS011;2548;52.050;11.036;2022-11-20T01:03:56;11.65;;;8.90;;
5058;SDS011;2548;52.050;11.036;2022-11-20T01:06:25;12.75;;;9.25;;
5058;SDS011;2548;52.050;11.036;2022-11-20T01:08:56;10.75;;;8.55;;
5058;SDS011;2548;52.050;11.036;2022-11-20T01:11:26;120.57;;;43.63;;
5058;SDS011;2548;52.050;11.036;2022-11-20T01:13:54;73.60;;;32.33;;
5058;SDS011;2548;52.050;11.036;2022-11-20T01:16:25;81.07;;;27.77;;
5058;SDS011;2548;52.050;11.036;2022-11-20T01:18:56;51.35;;;21.90;;
5058;SDS011;2548;52.050;11.036;2022-11-20T01:21:25;24.30;;;12.82;;
5058;SDS011;2548;52.050;11.036;2022-11-20T01:23:56;16.40;;;10.57;;
5058;SDS011;2548;52.050;11.036;2022-11-20T01:26:25;15.82;;;10.27;;
5058;SDS011;2548;52.050;11.036;2022-11-20T01:28:54;13.48;;;8.80;;
5058;SDS011;2548;52.050;11.036;2022-11-20T01:31:23;14.85;;;10.07;;
5058;SDS011;2548;52.050;11.036;2022-11-20T01:33:53;20.33;;;10.80;;
5058;SDS011;2548;52.050;11.036;2022-11-20T01:36:22;21.40;;;11.02;;
5058;SDS011;2548;52.050;11.036;2022-11-20T01:38:52;19.98;;;12.38;;
5058;SDS011;2548;52.050;11.036;2022-11-20T01:41:22;15.35;;;9.80;;
5058;SDS011;2548;52.050;11.036;2022-11-20T01:44:09;17.90;;;11.00;;
5058;SDS011;2548;52.050;11.036;2022-11-20T01:46:42;18.10;;;10.10;;
5058;SDS011;2548;52.050;11.036;2022-11-20T01:49:20;15.13;;;10.75;;
5058;SDS011;2548;52.050;11.036;2022-11-20T01:51:52;19.23;;;10.88;;
5058;SDS011;2548;52.050;11.036;2022-11-20T01:54:23;13.05;;;9.00;;
5058;SDS011;2548;52.050;11.036;2022-11-20T01:56:53;14.40;;;8.90;;
5058;SDS011;2548;52.050;11.036;2022-11-20T01:59:23;11.60;;;7.57;;
5058;SDS011;2548;52.050;11.036;2022-11-20T02:01:52;13.75;;;9.90;;
5058;SDS011;2548;52.050;11.036;2022-11-20T02:04:20;13.98;;;9.30;;
5058;SDS011;2548;52.050;11.036;2022-11-20T02:06:50;13.43;;;8.60;;
5058;SDS011;2548;52.050;11.036;2022-11-20T02:09:22;11.82;;;9.10;;
5058;SDS011;2548;52.050;11.036;2022-11-20T02:11:49;11.25;;;7.88;;
5058;SDS011;2548;52.050;11.036;2022-11-20T02:14:18;13.13;;;8.93;;
5058;SDS011;2548;52.050;11.036;2022-11-20T02:16:46;13.23;;;9.85;;
5058;SDS011;2548;52.050;11.036;2022-11-20T02:19:16;10.63;;;8.50;;
5058;SDS011;2548;52.050;11.036;2022-11-20T02:21:49;16.90;;;8.93;;
5058;SDS011;2548;52.050;11.036;2022-11-20T02:24:24;9.10;;;7.60;;
5058;SDS011;2548;52.050;11.036;2022-11-20T02:26:53;12.20;;;8.90;;
5058;SDS011;2548;52.050;11.036;2022-11-20T02:29:23;12.57;;;8.93;;
5058;SDS011;2548;52.050;11.036;2022-11-20T02:31:53;12.40;;;9.35;;
5058;SDS011;2548;52.050;11.036;2022-11-20T02:34:22;13.65;;;9.93;;
5058;SDS011;2548;52.050;11.036;2022-11-20T02:36:50;12.50;;;8.75;;
5058;SDS011;2548;52.050;11.036;2022-11-20T02:39:19;11.27;;;8.20;;
5058;SDS011;2548;52.050;11.036;2022-11-20T02:41:48;8.07;;;6.45;;
5058;SDS011;2548;52.050;11.036;2022-11-20T02:44:16;11.13;;;8.15;;
5058;SDS011;2548;52.050;11.036;2022-11-20T02:46:43;10.88;;;8.50;;
5058;SDS011;2548;52.050;11.036;2022-11-20T02:49:11;10.95;;;7.63;;
5058;SDS011;2548;52.050;11.036;2022-11-20T02:51:38;12.57;;;9.43;;
5058;SDS011;2548;52.050;11.036;2022-11-20T02:54:06;13.02;;;8.82;;
5058;SDS011;2548;52.050;11.036;2022-11-20T03:00:23;12.05;;;8.23;;
5058;SDS011;2548;52.050;11.036;2022-11-20T03:02:50;13.13;;;9.27;;
5058;SDS011;2548;52.050;11.036;2022-11-20T03:05:17;15.90;;;9.15;;
5058;SDS011;2548;52.050;11.036;2022-11-20T03:07:45;12.32;;;9.20;;
5058;SDS011;2548;52.050;11.036;2022-11-20T03:10:12;14.15;;;9.18;;
5058;SDS011;2548;52.050;11.036;2022-11-20T03:12:39;16.23;;;10.13;;
5058;SDS011;2548;52.050;11.036;2022-11-20T03:15:07;13.70;;;9.60;;
5058;SDS011;2548;52.050;11.036;2022-11-20T03:17:37;14.63;;;10.30;;
5058;SDS011;2548;52.050;11.036;2022-11-20T03:20:05;19.38;;;11.63;;
5058;SDS011;2548;52.050;11.036;2022-11-20T03:22:34;23.23;;;10.57;;
5058;SDS011;2548;52.050;11.036;2022-11-20T03:25:02;13.43;;;9.93;;
5058;SDS011;2548;52.050;11.036;2022-11-20T03:27:31;14.77;;;9.30;;
5058;SDS011;2548;52.050;11.036;2022-11-20T03:29:59;14.02;;;9.25;;
5058;SDS011;2548;52.050;11.036;2022-11-20T03:32:27;13.23;;;9.00;;
5058;SDS011;2548;52.050;11.036;2022-11-20T03:34:56;15.52;;;8.73;;
5058;SDS011;2548;52.050;11.036;2022-11-20T03:37:23;13.13;;;8.70;;
5058;SDS011;2548;52.050;11.036;2022-11-20T03:39:50;12.90;;;8.38;;
5058;SDS011;2548;52.050;11.036;2022-11-20T03:42:18;13.63;;;8.38;;
5058;SDS011;2548;52.050;11.036;2022-11-20T03:45:05;9.23;;;7.60;;
5058;SDS011;2548;52.050;11.036;2022-11-20T03:47:33;8.93;;;8.02;;
5058;SDS011;2548;52.050;11.036;2022-11-20T03:50:02;12.63;;;8.05;;
5058;SDS011;2548;52.050;11.036;2022-11-20T03:52:30;10.23;;;7.65;;
5058;SDS011;2548;52.050;11.036;2022-11-20T03:54:58;12.52;;;8.23;;
5058;SDS011;2548;52.050;11.036;2022-11-20T03:57:25;12.52;;;7.75;;
5058;SDS011;2548;52.050;11.036;2022-11-20T03:59:52;12.02;;;8.90;;
5058;SDS011;2548;52.050;11.036;2022-11-20T04:02:20;10.95;;;8.10;;
5058;SDS011;2548;52.050;11.036;2022-11-20T04:04:47;23.02;;;12.43;;
5058;SDS011;2548;52.050;11.036;2022-11-20T04:07:16;88.47;;;30.15;;
5058;SDS011;2548;52.050;11.036;2022-11-20T04:09:43;96.60;;;33.28;;
5058;SDS011;2548;52.050;11.036;2022-11-20T04:12:11;59.28;;;24.90;;
5058;SDS011;2548;52.050;11.036;2022-11-20T04:14:38;12.25;;;8.48;;
5058;SDS011;2548;52.050;11.036;2022-11-20T04:17:05;16.70;;;8.73;;
5058;SDS011;2548;52.050;11.036;2022-11-20T04:19:33;12.57;;;9.15;;
5058;SDS011;2548;52.050;11.036;2022-11-20T04:22:00;17.13;;;9.68;;
5058;SDS011;2548;52.050;11.036;2022-11-20T04:24:29;16.30;;;9.13;;
5058;SDS011;2548;52.050;11.036;2022-11-20T04:26:56;37.22;;;14.88;;
5058;SDS011;2548;52.050;11.036;2022-11-20T04:29:24;35.95;;;16.45;;
5058;SDS011;2548;52.050;11.036;2022-11-20T04:31:51;28.30;;;12.55;;
5058;SDS011;2548;52.050;11.036;2022-11-20T04:34:19;26.33;;;13.05;;
5058;SDS011;2548;52.050;11.036;2022-11-20T04:36:46;21.90;;;11.60;;
5058;SDS011;2548;52.050;11.036;2022-11-20T04:39:14;24.20;;;12.18;;
5058;SDS011;2548;52.050;11.036;2022-11-20T04:41:43;18.20;;;10.48;;
5058;SDS011;2548;52.050;11.036;2022-11-20T04:44:11;18.02;;;10.90;;
5058;SDS011;2548;52.050;11.036;2022-11-20T04:46:39;18.25;;;10.38;;
5058;SDS011;2548;52.050;11.036;2022-11-20T04:49:08;21.73;;;10.68;;
5058;SDS011;2548;52.050;11.036;2022-11-20T04:51:37;12.80;;;9.02;;
5058;SDS011;2548;52.050;11.036;2022-11-20T04:54:04;14.75;;;9.30;;
5058;SDS011;2548;52.050;11.036;2022-11-20T04:56:32;20.60;;;10.10;;
5058;SDS011;2548;52.050;11.036;2022-11-20T04:59:01;15.25;;;9.23;;
5058;SDS011;2548;52.050;11.036;2022-11-20T05:01:29;15.15;;;9.30;;
5058;SDS011;2548;52.050;11.036;2022-11-20T05:03:58;15.05;;;8.75;;
5058;SDS011;2548;52.050;11.036;2022-11-20T05:06:25;16.25;;;11.18;;
5058;SDS011;2548;52.050;11.036;2022-11-20T05:08:52;11.50;;;8.02;;
5058;SDS011;2548;52.050;11.036;2022-11-20T05:11:20;13.07;;;9.23;;
5058;SDS011;2548;52.050;11.036;2022-11-20T05:13:48;12.38;;;8.48;;
5058;SDS011;2548;52.050;11.036;2022-11-20T05:16:18;13.55;;;8.75;;
5058;SDS011;2548;52.050;11.036;2022-11-20T05:18:48;12.10;;;9.05;;
5058;SDS011;2548;52.050;11.036;2022-11-20T05:21:16;14.10;;;8.60;;
5058;SDS011;2548;52.050;11.036;2022-11-20T05:23:44;16.30;;;9.23;;
5058;SDS011;2548;52.050;11.036;2022-11-20T05:26:12;12.68;;;9.50;;
5058;SDS011;2548;52.050;11.036;2022-11-20T05:28:41;11.30;;;9.77;;
5058;SDS011;2548;52.050;11.036;2022-11-20T05:31:09;13.02;;;9.95;;
5058;SDS011;2548;52.050;11.036;2022-11-20T05:33:40;11.57;;;8.45;;
5058;SDS011;2548;52.050;11.036;2022-11-20T05:36:09;17.63;;;9.38;;
5058;SDS011;2548;52.050;11.036;2022-11-20T05:38:37;10.73;;;8.77;;
5058;SDS011;2548;52.050;11.036;2022-11-20T05:41:05;10.25;;;8.05;;
5058;SDS011;2548;52.050;11.036;2022-11-20T05:43:33;10.70;;;8.93;;
5058;SDS011;2548;52.050;11.036;2022-11-20T05:46:01;13.00;;;8.30;;
5058;SDS011;2548;52.050;11.036;2022-11-20T05:48:29;11.75;;;9.15;;
5058;SDS011;2548;52.050;11.036;2022-11-20T05:50:58;11.93;;;9.23;;
5058;SDS011;2548;52.050;11.036;2022-11-20T05:53:27;12.48;;;7.90;;
5058;SDS011;2548;52.050;11.036;2022-11-20T05:55:57;12.23;;;8.23;;
5058;SDS011;2548;52.050;11.036;2022-11-20T05:58:26;12.50;;;7.95;;
5058;SDS011;2548;52.050;11.036;2022-11-20T06:00:54;11.15;;;7.85;;
5058;SDS011;2548;52.050;11.036;2022-11-20T06:03:21;10.35;;;7.35;;
5058;SDS011;2548;52.050;11.036;2022-11-20T06:05:49;11.55;;;8.32;;
5058;SDS011;2548;52.050;11.036;2022-11-20T06:08:18;19.60;;;10.82;;
5058;SDS011;2548;52.050;11.036;2022-11-20T06:10:45;14.77;;;9.25;;
5058;SDS011;2548;52.050;11.036;2022-11-20T06:13:13;16.80;;;8.80;;
5058;SDS011;2548;52.050;11.036;2022-11-20T06:15:40;9.88;;;7.55;;
5058;SDS011;2548;52.050;11.036;2022-11-20T06:18:07;15.07;;;8.18;;
5058;SDS011;2548;52.050;11.036;2022-11-20T06:20:35;21.42;;;9.00;;
5058;SDS011;2548;52.050;11.036;2022-11-20T06:23:02;18.17;;;10.50;;
5058;SDS011;2548;52.050;11.036;2022-11-20T06:25:31;15.75;;;9.55;;
5058;SDS011;2548;52.050;11.036;2022-11-20T06:27:59;20.40;;;8.50;;
5058;SDS011;2548;52.050;11.036;2022-11-20T06:30:26;13.65;;;8.50;;
5058;SDS011;2548;52.050;11.036;2022-11-20T06:32:53;12.45;;;8.95;;
5058;SDS011;2548;52.050;11.036;2022-11-20T06:35:21;11.80;;;8.05;;
5058;SDS011;2548;52.050;11.036;2022-11-20T06:37:48;11.15;;;6.80;;
5058;SDS011;2548;52.050;11.036;2022-11-20T06:40:16;8.70;;;7.30;;
5058;SDS011;2548;52.050;11.036;2022-11-20T06:42:45;9.40;;;7.00;;
5058;SDS011;2548;52.050;11.036;2022-11-20T06:45:12;12.73;;;7.85;;
5058;SDS011;2548;52.050;11.036;2022-11-20T06:47:40;8.05;;;6.40;;
5058;SDS011;2548;52.050;11.036;2022-11-20T06:50:07;10.38;;;7.97;;
5058;SDS011;2548;52.050;11.036;2022-11-20T06:52:35;10.65;;;7.25;;
5058;SDS011;2548;52.050;11.036;2022-11-20T06:55:03;10.23;;;7.43;;
5058;SDS011;2548;52.050;11.036;2022-11-20T06:57:31;10.15;;;7.30;;
5058;SDS011;2548;52.050;11.036;2022-11-20T07:00:00;14.07;;;9.70;;
5058;SDS011;2548;52.050;11.036;2022-11-20T07:02:27;12.25;;;8.70;;
5058;SDS011;2548;52.050;11.036;2022-11-20T07:04:55;12.40;;;8.63;;
5058;SDS011;2548;52.050;11.036;2022-11-20T07:07:22;10.98;;;8.45;;
5058;SDS011;2548;52.050;11.036;2022-11-20T07:09:49;12.40;;;9.05;;
5058;SDS011;2548;52.050;11.036;2022-11-20T07:12:17;69.82;;;27.42;;
5058;SDS011;2548;52.050;11.036;2022-11-20T07:14:44;39.00;;;16.90;;
5058;SDS011;2548;52.050;11.036;2022-11-20T07:17:13;66.07;;;23.92;;
5058;SDS011;2548;52.050;11.036;2022-11-20T07:19:41;79.38;;;31.55;;
5058;SDS011;2548;52.050;11.036;2022-11-20T07:22:08;71.50;;;30.50;;
5058;SDS011;2548;52.050;11.036;2022-11-20T07:24:36;72.88;;;31.60;;
5058;SDS011;2548;52.050;11.036;2022-11-20T07:27:03;169.85;;;64.15;;
5058;SDS011;2548;52.050;11.036;2022-11-20T07:29:31;111.07;;;51.60;;
5058;SDS011;2548;52.050;11.036;2022-11-20T07:31:58;53.10;;;25.35;;
5058;SDS011;2548;52.050;11.036;2022-11-20T07:34:27;63.45;;;33.40;;
5058;SDS011;2548;52.050;11.036;2022-11-20T07:36:55;24.27;;;13.95;;
5058;SDS011;2548;52.050;11.036;2022-11-20T07:39:22;16.40;;;8.48;;
5058;SDS011;2548;52.050;11.036;2022-11-20T07:41:49;21.88;;;11.50;;
5058;SDS011;2548;52.050;11.036;2022-11-20T07:44:17;23.40;;;15.02;;
5058;SDS011;2548;52.050;11.036;2022-11-20T07:46:45;21.38;;;14.13;;
5058;SDS011;2548;52.050;11.036;2022-11-20T07:49:12;19.17;;;12.45;;
5058;SDS011;2548;52.050;11.036;2022-11-20T07:51:41;16.15;;;12.13;;
5058;SDS011;2548;52.050;11.036;2022-11-20T07:54:08;15.18;;;11.85;;
5058;SDS011;2548;52.050;11.036;2022-11-20T07:56:36;17.70;;;11.30;;
5058;SDS011;2548;52.050;11.036;2022-11-20T07:59:03;17.20;;;11.40;;
5058;SDS011;2548;52.050;11.036;2022-11-20T08:01:30;14.63;;;9.00;;
5058;SDS011;2548;52.050;11.036;2022-11-20T08:03:58;16.45;;;11.48;;
5058;SDS011;2548;52.050;11.036;2022-11-20T08:06:25;12.05;;;8.20;;
5058;SDS011;2548;52.050;11.036;2022-11-20T08:08:54;13.20;;;9.35;;
5058;SDS011;2548;52.050;11.036;2022-11-20T08:11:21;19.50;;;9.80;;
5058;SDS011;2548;52.050;11.036;2022-11-20T08:14:06;12.88;;;8.45;;
5058;SDS011;2548;52.050;11.036;2022-11-20T08:16:40;12.95;;;9.30;;
5058;SDS011;2548;52.050;11.036;2022-11-20T08:19:09;9.55;;;8.10;;
5058;SDS011;2548;52.050;11.036;2022-11-20T08:21:36;13.18;;;8.30;;
5058;SDS011;2548;52.050;11.036;2022-11-20T08:24:06;10.18;;;8.13;;
5058;SDS011;2548;52.050;11.036;2022-11-20T08:26:34;8.70;;;6.68;;
5058;SDS011;2548;52.050;11.036;2022-11-20T08:29:03;7.68;;;6.90;;
5058;SDS011;2548;52.050;11.036;2022-11-20T08:31:31;9.02;;;6.50;;
5058;SDS011;2548;52.050;11.036;2022-11-20T08:33:59;8.88;;;6.95;;
5058;SDS011;2548;52.050;11.036;2022-11-20T08:36:26;16.13;;;10.02;;
5058;SDS011;2548;52.050;11.036;2022-11-20T08:38:54;13.48;;;8.25;;
5058;SDS011;2548;52.050;11.036;2022-11-20T08:41:23;7.78;;;6.82;;
5058;SDS011;2548;52.050;11.036;2022-11-20T08:43:52;5.72;;;5.18;;
5058;SDS011;2548;52.050;11.036;2022-11-20T08:46:21;6.22;;;5.25;;
5058;SDS011;2548;52.050;11.036;2022-11-20T08:48:49;6.35;;;5.75;;
5058;SDS011;2548;52.050;11.036;2022-11-20T08:51:17;6.53;;;5.65;;
5058;SDS011;2548;52.050;11.036;2022-11-20T08:53:45;5.72;;;5.25;;
5058;SDS011;2548;52.050;11.036;2022-11-20T08:56:14;7.03;;;4.93;;
5058;SDS011;2548;52.050;11.036;2022-11-20T08:58:43;5.88;;;5.28;;
5058;SDS011;2548;52.050;11.036;2022-11-20T09:01:11;4.95;;;4.53;;
5058;SDS011;2548;52.050;11.036;2022-11-20T09:03:38;7.93;;;5.88;;
5058;SDS011;2548;52.050;11.036;2022-11-20T09:06:06;5.80;;;5.30;;
5058;SDS011;2548;52.050;11.036;2022-11-20T09:08:34;6.53;;;4.97;;
5058;SDS011;2548;52.050;11.036;2022-11-20T09:11:03;5.10;;;4.70;;
5058;SDS011;2548;52.050;11.036;2022-11-20T09:13:31;4.72;;;4.32;;
5058;SDS011;2548;52.050;11.036;2022-11-20T09:16:02;4.72;;;4.30;;
5058;SDS011;2548;52.050;11.036;2022-11-20T09:18:31;5.68;;;5.18;;
5058;SDS011;2548;52.050;11.036;2022-11-20T09:21:02;7.90;;;5.32;;
5058;SDS011;2548;52.050;11.036;2022-11-20T09:23:31;11.60;;;8.13;;
5058;SDS011;2548;52.050;11.036;2022-11-20T09:26:01;16.65;;;10.90;;
5058;SDS011;2548;52.050;11.036;2022-11-20T09:28:29;12.05;;;9.77;;
5058;SDS011;2548;52.050;11.036;2022-11-20T09:30:57;13.52;;;9.00;;
5058;SDS011;2548;52.050;11.036;2022-11-20T09:33:26;9.52;;;8.13;;
5058;SDS011;2548;52.050;11.036;2022-11-20T09:35:54;6.72;;;5.63;;
5058;SDS011;2548;52.050;11.036;2022-11-20T09:38:21;10.30;;;7.00;;
5058;SDS011;2548;52.050;11.036;2022-11-20T09:40:50;9.13;;;6.25;;
5058;SDS011;2548;52.050;11.036;2022-11-20T09:43:26;25.13;;;14.65;;
5058;SDS011;2548;52.050;11.036;2022-11-20T09:46:08;16.63;;;10.45;;
5058;SDS011;2548;52.050;11.036;2022-11-20T09:48:51;8.35;;;7.55;;
5058;SDS011;2548;52.050;11.036;2022-11-20T09:51:31;9.35;;;8.45;;
5058;SDS011;2548;52.050;11.036;2022-11-20T09:54:11;8.00;;;6.47;;
5058;SDS011;2548;52.050;11.036;2022-11-20T09:56:44;7.57;;;6.63;;
5058;SDS011;2548;52.050;11.036;2022-11-20T09:59:19;6.57;;;6.00;;
5058;SDS011;2548;52.050;11.036;2022-11-20T10:01:59;22.92;;;14.57;;
5058;SDS011;2548;52.050;11.036;2022-11-20T10:04:30;36.22;;;20.70;;
5058;SDS011;2548;52.050;11.036;2022-11-20T10:07:01;14.00;;;11.50;;
5058;SDS011;2548;52.050;11.036;2022-11-20T10:09:34;11.32;;;9.27;;
5058;SDS011;2548;52.050;11.036;2022-11-20T10:12:11;10.77;;;7.72;;
5058;SDS011;2548;52.050;11.036;2022-11-20T10:14:45;5.90;;;5.28;;
5058;SDS011;2548;52.050;11.036;2022-11-20T10:17:26;5.30;;;4.80;;
5058;SDS011;2548;52.050;11.036;2022-11-20T10:20:19;50.72;;;24.55;;
5058;SDS011;2548;52.050;11.036;2022-11-20T10:23:00;43.63;;;24.05;;
5058;SDS011;2548;52.050;11.036;2022-11-20T10:25:55;14.90;;;9.68;;
5058;SDS011;2548;52.050;11.036;2022-11-20T10:28:30;16.48;;;11.80;;
5058;SDS011;2548;52.050;11.036;2022-11-20T10:31:11;7.00;;;6.32;;
5058;SDS011;2548;52.050;11.036;2022-11-20T10:33:44;7.32;;;6.30;;
5058;SDS011;2548;52.050;11.036;2022-11-20T10:36:17;6.80;;;6.22;;
5058;SDS011;2548;52.050;11.036;2022-11-20T10:38:50;6.13;;;5.35;;
5058;SDS011;2548;52.050;11.036;2022-11-20T10:41:23;7.50;;;6.75;;
5058;SDS011;2548;52.050;11.036;2022-11-20T10:43:54;6.35;;;5.63;;
5058;SDS011;2548;52.050;11.036;2022-11-20T10:46:31;5.88;;;5.00;;
5058;SDS011;2548;52.050;11.036;2022-11-20T10:49:04;6.50;;;5.45;;
5058;SDS011;2548;52.050;11.036;2022-11-20T10:51:40;6.90;;;6.13;;
5058;SDS011;2548;52.050;11.036;2022-11-20T10:54:18;6.47;;;5.57;;
5058;SDS011;2548;52.050;11.036;2022-11-20T10:56:52;9.98;;;6.97;;
5058;SDS011;2548;52.050;11.036;2022-11-20T11:02:16;9.20;;;7.07;;
5058;SDS011;2548;52.050;11.036;2022-11-20T11:04:45;9.38;;;6.45;;
5058;SDS011;2548;52.050;11.036;2022-11-20T11:07:16;12.15;;;7.95;;
5058;SDS011;2548;52.050;11.036;2022-11-20T11:09:49;12.05;;;9.02;;
5058;SDS011;2548;52.050;11.036;2022-11-20T11:12:18;5.28;;;4.85;;
5058;SDS011;2548;52.050;11.036;2022-11-20T11:14:48;22.25;;;10.73;;
5058;SDS011;2548;52.050;11.036;2022-11-20T11:17:24;23.00;;;12.27;;
5058;SDS011;2548;52.050;11.036;2022-11-20T11:19:57;15.75;;;9.88;;
5058;SDS011;2548;52.050;11.036;2022-11-20T11:22:31;9.50;;;7.85;;
5058;SDS011;2548;52.050;11.036;2022-11-20T11:25:00;7.80;;;6.97;;
5058;SDS011;2548;52.050;11.036;2022-11-20T11:27:28;8.27;;;7.40;;
5058;SDS011;2548;52.050;11.036;2022-11-20T11:30:10;7.05;;;6.35;;
5058;SDS011;2548;52.050;11.036;2022-11-20T11:32:41;12.15;;;8.25;;
5058;SDS011;2548;52.050;11.036;2022-11-20T11:35:19;8.00;;;6.90;;
5058;SDS011;2548;52.050;11.036;2022-11-20T11:37:49;7.32;;;6.38;;
5058;SDS011;2548;52.050;11.036;2022-11-20T11:40:20;7.63;;;6.90;;
5058;SDS011;2548;52.050;11.036;2022-11-20T11:42:51;6.40;;;5.50;;
5058;SDS011;2548;52.050;11.036;2022-11-20T11:45:21;5.90;;;5.40;;
5058;SDS011;2548;52.050;11.036;2022-11-20T11:47:49;8.63;;;7.03;;
5058;SDS011;2548;52.050;11.036;2022-11-20T11:50:19;10.07;;;7.38;;
5058;SDS011;2548;52.050;11.036;2022-11-20T11:52:54;22.48;;;14.02;;
5058;SDS011;2548;52.050;11.036;2022-11-20T11:55:30;12.95;;;10.40;;
5058;SDS011;2548;52.050;11.036;2022-11-20T11:58:06;10.43;;;8.85;;
5058;SDS011;2548;52.050;11.036;2022-11-20T12:00:45;8.48;;;7.35;;
5058;SDS011;2548;52.050;11.036;2022-11-20T12:03:19;8.35;;;7.55;;
5058;SDS011;2548;52.050;11.036;2022-11-20T12:05:54;6.82;;;6.22;;
5058;SDS011;2548;52.050;11.036;2022-11-20T12:08:27;9.43;;;7.28;;
5058;SDS011;2548;52.050;11.036;2022-11-20T12:10:59;9.90;;;7.63;;
5058;SDS011;2548;52.050;11.036;2022-11-20T12:13:41;6.63;;;5.93;;
5058;SDS011;2548;52.050;11.036;2022-11-20T12:16:14;10.82;;;6.90;;
5058;SDS011;2548;52.050;11.036;2022-11-20T12:18:49;7.07;;;6.32;;
5058;SDS011;2548;52.050;11.036;2022-11-20T12:21:19;9.98;;;6.35;;
5058;SDS011;2548;52.050;11.036;2022-11-20T12:24:04;7.95;;;7.07;;
5058;SDS011;2548;52.050;11.036;2022-11-20T12:26:44;8.27;;;6.38;;
5058;SDS011;2548;52.050;11.036;2022-11-20T12:29:24;5.93;;;5.32;;
5058;SDS011;2548;52.050;11.036;2022-11-20T12:32:05;6.60;;;4.47;;
5058;SDS011;2548;52.050;11.036;2022-11-20T12:34:52;6.45;;;4.97;;
5058;SDS011;2548;52.050;11.036;2022-11-20T12:37:30;5.95;;;5.22;;
5058;SDS011;2548;52.050;11.036;2022-11-20T12:40:12;6.47;;;5.70;;
5058;SDS011;2548;52.050;11.036;2022-11-20T12:42:53;5.80;;;5.40;;
5058;SDS011;2548;52.050;11.036;2022-11-20T12:45:53;6.93;;;6.25;;
5058;SDS011;2548;52.050;11.036;2022-11-20T12:48:35;8.13;;;6.60;;
5058;SDS011;2548;52.050;11.036;2022-11-20T12:51:29;8.55;;;6.35;;
5058;SDS011;2548;52.050;11.036;2022-11-20T12:54:36;4.97;;;4.55;;
5058;SDS011;2548;52.050;11.036;2022-11-20T12:57:16;5.47;;;4.97;;
5058;SDS011;2548;52.050;11.036;2022-11-20T12:59:55;7.90;;;5.50;;
5058;SDS011;2548;52.050;11.036;2022-11-20T13:02:36;7.80;;;5.60;;
5058;SDS011;2548;52.050;11.036;2022-11-20T13:05:17;6.88;;;5.15;;
5058;SDS011;2548;52.050;11.036;2022-11-20T13:07:47;15.80;;;5.57;;
5058;SDS011;2548;52.050;11.036;2022-11-20T13:10:18;4.70;;;4.40;;
5058;SDS011;2548;52.050;11.036;2022-11-20T13:12:52;5.22;;;4.05;;
5058;SDS011;2548;52.050;11.036;2022-11-20T13:15:33;9.25;;;6.70;;
5058;SDS011;2548;52.050;11.036;2022-11-20T13:18:08;5.03;;;4.05;;
5058;SDS011;2548;52.050;11.036;2022-11-20T13:20:41;4.80;;;3.80;;
5058;SDS011;2548;52.050;11.036;2022-11-20T13:23:09;4.20;;;3.85;;
5058;SDS011;2548;52.050;11.036;2022-11-20T13:25:38;5.05;;;4.55;;
5058;SDS011;2548;52.050;11.036;2022-11-20T13:30:56;4.45;;;4.05;;
5058;SDS011;2548;52.050;11.036;2022-11-20T13:33:27;9.50;;;7.05;;
5058;SDS011;2548;52.050;11.036;2022-11-20T13:35:58;4.63;;;4.22;;
5058;SDS011;2548;52.050;11.036;2022-11-20T13:38:27;4.53;;;4.22;;
5058;SDS011;2548;52.050;11.036;2022-11-20T13:41:07;5.07;;;4.45;;
5058;SDS011;2548;52.050;11.036;2022-11-20T13:43:51;4.32;;;3.92;;
5058;SDS011;2548;52.050;11.036;2022-11-20T13:46:19;4.53;;;4.22;;
5058;SDS011;2548;52.050;11.036;2022-11-20T13:48:50;6.93;;;4.80;;
5058;SDS011;2548;52.050;11.036;2022-11-20T13:51:26;6.38;;;4.47;;
5058;SDS011;2548;52.050;11.036;2022-11-20T13:54:13;4.78;;;4.28;;
5058;SDS011;2548;52.050;11.036;2022-11-20T13:57:08;5.22;;;4.82;;
5058;SDS011;2548;52.050;11.036;2022-11-20T13:59:52;5.68;;;5.15;;
5058;SDS011;2548;52.050;11.036;2022-11-20T14:02:25;5.03;;;4.53;;
5058;SDS011;2548;52.050;11.036;2022-11-20T14:04:56;5.13;;;4.63;;
5058;SDS011;2548;52.050;11.036;2022-11-20T14:07:27;11.25;;;7.55;;
5058;SDS011;2548;52.050;11.036;2022-11-20T14:10:01;10.98;;;9.82;;
5058;SDS011;2548;52.050;11.036;2022-11-20T14:12:30;9.35;;;7.72;;
5058;SDS011;2548;52.050;11.036;2022-11-20T14:15:00;6.25;;;5.65;;
5058;SDS011;2548;52.050;11.036;2022-11-20T14:17:30;6.93;;;6.10;;
5058;SDS011;2548;52.050;11.036;2022-11-20T14:19:59;10.65;;;7.57;;
5058;SDS011;2548;52.050;11.036;2022-11-20T14:22:28;13.68;;;8.40;;
5058;SDS011;2548;52.050;11.036;2022-11-20T14:25:03;7.13;;;6.38;;
5058;SDS011;2548;52.050;11.036;2022-11-20T14:27:34;10.63;;;7.45;;
5058;SDS011;2548;52.050;11.036;2022-11-20T14:30:06;8.88;;;6.13;;
5058;SDS011;2548;52.050;11.036;2022-11-20T14:32:39;10.50;;;7.43;;
5058;SDS011;2548;52.050;11.036;2022-11-20T14:35:09;9.13;;;7.13;;
5058;SDS011;2548;52.050;11.036;2022-11-20T14:37:40;7.35;;;6.65;;
5058;SDS011;2548;52.050;11.036;2022-11-20T14:40:21;9.35;;;7.22;;
5058;SDS011;2548;52.050;11.036;2022-11-20T14:42:50;8.45;;;6.63;;
5058;SDS011;2548;52.050;11.036;2022-11-20T14:45:19;8.55;;;7.47;;
5058;SDS011;2548;52.050;11.036;2022-11-20T14:47:48;8.18;;;7.20;;
5058;SDS011;2548;52.050;11.036;2022-11-20T14:50:18;19.15;;;11.30;;
5058;SDS011;2548;52.050;11.036;2022-11-20T14:52:51;14.27;;;10.10;;
5058;SDS011;2548;52.050;11.036;2022-11-20T14:55:26;17.85;;;12.70;;
5058;SDS011;2548;52.050;11.036;2022-11-20T14:57:56;20.27;;;12.48;;
5058;SDS011;2548;52.050;11.036;2022-11-20T15:00:26;19.00;;;11.68;;
5058;SDS011;2548;52.050;11.036;2022-11-20T15:02:54;9.45;;;8.00;;
5058;SDS011;2548;52.050;11.036;2022-11-20T15:05:22;9.95;;;7.40;;
5058;SDS011;2548;52.050;11.036;2022-11-20T15:07:52;7.60;;;5.88;;
5058;SDS011;2548;52.050;11.036;2022-11-20T15:10:32;10.32;;;5.95;;
5058;SDS011;2548;52.050;11.036;2022-11-20T15:13:00;7.50;;;6.57;;
5058;SDS011;2548;52.050;11.036;2022-11-20T15:15:32;7.20;;;5.40;;
5058;SDS011;2548;52.050;11.036;2022-11-20T15:18:03;9.02;;;7.28;;
5058;SDS011;2548;52.050;11.036;2022-11-20T15:20:31;11.15;;;7.45;;